Time;durP1;ratioP1;P1;durP2;ratioP2;P2;SDS_P1;SDS_P2;PMS_P1;PMS_P2;Temp;Humidity;BMP_temperature;BMP_pressure;BME280_temperature;BME280_humidity;BME280_pressure;Samples;Min_cycle;Max_cycle;Signal;HPM_P1;HPM_P2
2023/05/22 00:00:36;;;;;;;;;;;;;;;14.73;94.93;96107.13;4984244;28;19989;-72
2023/05/22 00:03:03;;;;;;;;;;;;;;;14.70;94.96;96107.63;5051052;28;20150;-72
2023/05/22 00:05:30;;;;;;;;;;;;;;;14.66;94.63;96103.09;5050867;28;19967;-72
2023/05/22 00:07:56;;;;;;;;;;;;;;;14.62;94.79;96100.19;4984237;28;19963;-72
2023/05/22 00:10:21;;;;;;;;;;;;;;;14.61;94.78;96098.56;4984290;28;20253;-84
2023/05/22 00:12:47;;;;;;;;;;;;;;;14.56;95.01;96094.06;4984020;28;19952;-71
2023/05/22 00:15:13;;;;;;;;;;;;;;;14.54;95.00;96095.31;4984138;28;19958;-74
2023/05/22 00:17:39;;;;;;;;;;;;;;;14.50;95.14;96089.75;4983988;28;19961;-74
2023/05/22 00:20:07;;;;;;;;;;;;;;;14.46;95.37;96096.56;5050691;28;19961;-74
2023/05/22 00:22:36;;;;;;;;;;;;;;;14.44;95.76;96093.38;5034638;28;19966;-75
2023/05/22 00:25:02;;;;;;;;;;;;;;;14.41;95.59;96099.97;5034538;28;19976;-75
2023/05/22 00:27:28;;;;;;;;;;;;;;;14.40;96.16;96098.38;4984213;28;19957;-75
2023/05/22 00:29:54;;;;;;;;;;;;;;;14.38;96.45;96094.38;5050933;28;20272;-69
2023/05/22 00:32:20;;;;;;;;;;;;;;;14.33;96.55;96089.06;4983617;28;19960;-71
2023/05/22 00:34:46;;;;;;;;;;;;;;;14.31;97.26;96097.22;5050665;28;19960;-71
2023/05/22 00:37:11;;;;;;;;;;;;;;;14.29;96.68;96087.97;4983602;28;20257;-71
2023/05/22 00:39:37;;;;;;;;;;;;;;;14.26;97.10;96086.66;4983824;28;19968;-71
2023/05/22 00:42:03;;;;;;;;;;;;;;;14.24;97.20;96091.38;4983578;28;19956;-71
2023/05/22 00:44:29;;;;;;;;;;;;;;;14.21;97.95;96089.22;4983602;28;19969;-71
2023/05/22 00:46:55;;;;;;;;;;;;;;;14.18;98.01;96085.25;4983705;28;20103;-72
2023/05/22 00:49:21;;;;;;;;;;;;;;;14.17;97.89;96081.03;4983626;28;19967;-78
2023/05/22 00:51:47;;;;;;;;;;;;;;;14.14;97.79;96078.09;4983598;28;19944;-73
2023/05/22 00:54:14;;;;;;;;;;;;;;;14.12;98.27;96074.91;4983285;28;19958;-72
2023/05/22 00:56:40;;;;;;;;;;;;;;;14.11;98.33;96078.56;4983543;28;19951;-71
2023/05/22 00:59:06;;;;;;;;;;;;;;;14.11;98.56;96083.84;5050130;28;20236;-71
2023/05/22 01:01:36;;;;;;;;;;;;;;;14.09;99.18;96086.75;4983298;28;19957;-71
2023/05/22 01:04:03;;;;;;;;;;;;;;;14.08;98.69;96087.00;5049880;28;19976;-71
2023/05/22 01:06:31;;;;;;;;;;;;;;;14.06;99.10;96094.34;4983514;28;20242;-73
2023/05/22 01:08:57;;;;;;;;;;;;;;;14.03;98.86;96093.00;4983217;28;19967;-74
2023/05/22 01:11:41;;;;;;;;;;;;;;;14.03;98.06;96093.00;4983311;28;19955;-78
2023/05/22 01:14:24;;;;;;;;;;;;;;;14.00;97.92;96089.00;4983229;28;20149;-78
2023/05/22 01:17:09;;;;;;;;;;;;;;;13.99;98.72;96105.88;4983388;28;19976;-78
2023/05/22 01:19:38;;;;;;;;;;;;;;;13.97;99.72;96117.72;4983175;28;20260;-78
2023/05/22 01:22:23;;;;;;;;;;;;;;;13.97;99.59;96115.88;5049649;28;19960;-76
2023/05/22 01:24:52;;;;;;;;;;;;;;;13.92;99.85;96113.19;4983109;28;20236;-79
2023/05/22 01:27:40;;;;;;;;;;;;;;;13.91;99.86;96113.44;4983064;28;19953;-70
2023/05/22 01:30:16;;;;;;;;;;;;;;;13.89;100.00;96121.59;5049906;28;19964;-71
2023/05/22 01:32:42;;;;;;;;;;;;;;;13.89;100.00;96120.81;4982676;28;19959;-70
2023/05/22 01:35:10;;;;;;;;;;;;;;;13.88;100.00;96119.19;4982575;28;19976;-70
2023/05/22 01:37:37;;;;;;;;;;;;;;;13.86;100.00;96108.91;4982687;28;19964;-70
2023/05/22 01:40:05;;;;;;;;;;;;;;;13.85;100.00;96119.69;4982533;28;19958;-70
2023/05/22 01:42:31;;;;;;;;;;;;;;;13.84;100.00;96116.28;4982747;28;20040;-74
2023/05/22 01:44:56;;;;;;;;;;;;;;;13.83;100.00;96108.59;4982821;28;20256;-80
2023/05/22 01:47:22;;;;;;;;;;;;;;;13.81;100.00;96107.00;4982689;28;20188;-76
2023/05/22 01:49:48;;;;;;;;;;;;;;;13.80;100.00;96108.06;4983265;28;20244;-75
2023/05/22 01:52:17;;;;;;;;;;;;;;;13.79;100.00;96110.94;4982850;28;19965;-77
2023/05/22 01:55:05;;;;;;;;;;;;;;;13.78;100.00;96107.50;4982658;28;20122;-76
2023/05/22 01:57:34;;;;;;;;;;;;;;;13.77;100.00;96113.00;5049607;28;19968;-76
2023/05/22 02:00:08;;;;;;;;;;;;;;;13.76;100.00;96106.16;4982709;28;19954;-76
2023/05/22 02:02:38;;;;;;;;;;;;;;;13.77;100.00;96113.00;4982663;28;19965;-75
2023/05/22 02:05:05;;;;;;;;;;;;;;;13.75;100.00;96104.56;4982518;28;19966;-77
2023/05/22 02:07:32;;;;;;;;;;;;;;;13.75;100.00;96109.81;5051265;28;19960;-76
2023/05/22 02:09:59;;;;;;;;;;;;;;;13.75;100.00;96107.19;4985452;28;19965;-76
2023/05/22 02:12:26;;;;;;;;;;;;;;;13.75;100.00;96107.19;4986014;28;20138;-75
2023/05/22 02:14:52;;;;;;;;;;;;;;;13.75;100.00;96108.00;4986008;28;20115;-74
2023/05/22 02:17:19;;;;;;;;;;;;;;;13.74;100.00;96106.41;4985818;28;19970;-74
2023/05/22 02:19:45;;;;;;;;;;;;;;;13.73;100.00;96110.09;4985957;28;19962;-70
2023/05/22 02:22:13;;;;;;;;;;;;;;;13.73;100.00;96104.81;4986006;28;19954;-71
2023/05/22 02:24:40;;;;;;;;;;;;;;;13.72;100.00;96116.38;4985831;28;19963;-80
2023/05/22 02:27:06;;;;;;;;;;;;;;;13.72;100.00;96115.59;4985512;28;20111;-79
2023/05/22 02:29:32;;;;;;;;;;;;;;;13.70;100.00;96115.84;4985873;28;20000;-83
2023/05/22 02:31:58;;;;;;;;;;;;;;;13.71;100.00;96111.34;5053054;28;20003;-81
2023/05/22 02:34:25;;;;;;;;;;;;;;;13.65;100.00;96113.16;4985634;28;19964;-78
2023/05/22 02:36:51;;;;;;;;;;;;;;;13.54;100.00;96117.50;4985715;28;20120;-78
2023/05/22 02:39:18;;;;;;;;;;;;;;;13.48;100.00;96112.41;5052743;28;20002;-77
2023/05/22 02:41:44;;;;;;;;;;;;;;;13.46;100.00;96117.94;4985592;28;19980;-75
2023/05/22 02:44:10;;;;;;;;;;;;;;;13.49;100.00;96125.31;5053139;28;19961;-75
2023/05/22 02:46:36;;;;;;;;;;;;;;;13.49;100.00;96120.06;5035663;28;19954;-74
2023/05/22 02:49:02;;;;;;;;;;;;;;;13.51;100.00;96114.56;4985147;28;19963;-74
2023/05/22 02:51:27;;;;;;;;;;;;;;;13.50;100.00;96108.50;4985278;28;19961;-74
2023/05/22 02:53:53;;;;;;;;;;;;;;;13.54;100.00;96121.97;4985650;28;20023;-75
2023/05/22 02:56:20;;;;;;;;;;;;;;;13.54;100.00;96122.78;5036114;28;19962;-75
2023/05/22 02:58:46;;;;;;;;;;;;;;;13.55;100.00;96126.19;4985078;28;19958;-75
2023/05/22 03:01:12;;;;;;;;;;;;;;;13.56;100.00;96131.19;5052480;28;20248;-70
2023/05/22 03:03:38;;;;;;;;;;;;;;;13.57;100.00;96130.19;5052186;28;19969;-69
2023/05/22 03:06:05;;;;;;;;;;;;;;;13.59;100.00;96127.31;4985046;28;19975;-70
2023/05/22 03:08:30;;;;;;;;;;;;;;;13.59;100.00;96128.09;4984727;28;20010;-69
2023/05/22 03:10:57;;;;;;;;;;;;;;;13.60;100.00;96132.31;4985112;28;19958;-69
2023/05/22 03:13:23;;;;;;;;;;;;;;;13.60;100.00;96132.31;5052082;28;19985;-69
2023/05/22 03:15:50;;;;;;;;;;;;;;;13.60;100.00;96128.88;4985041;28;19957;-75
2023/05/22 03:18:16;;;;;;;;;;;;;;;13.60;100.00;96128.88;4984404;28;19962;-70
2023/05/22 03:20:42;;;;;;;;;;;;;;;13.60;100.00;96129.69;5052217;28;19945;-70
2023/05/22 03:23:10;;;;;;;;;;;;;;;13.59;100.00;96128.09;4985165;28;19963;-70
2023/05/22 03:25:36;;;;;;;;;;;;;;;13.57;100.00;96132.81;4984991;28;19964;-70
2023/05/22 03:28:02;;;;;;;;;;;;;;;13.55;100.00;96129.63;4984617;28;19959;-71
2023/05/22 03:30:28;;;;;;;;;;;;;;;13.54;100.00;96137.75;4984946;28;19958;-70
2023/05/22 03:32:53;;;;;;;;;;;;;;;13.51;100.00;96152.22;4984929;28;20023;-70
2023/05/22 03:35:19;;;;;;;;;;;;;;;13.46;100.00;96146.91;4984717;28;19958;-81
2023/05/22 03:37:45;;;;;;;;;;;;;;;13.44;100.00;96138.44;4984773;28;19962;-74
2023/05/22 03:40:11;;;;;;;;;;;;;;;13.43;100.00;96144.75;4984261;28;19953;-74
2023/05/22 03:42:37;;;;;;;;;;;;;;;13.42;100.00;96139.69;5034884;28;19964;-74
2023/05/22 03:45:03;;;;;;;;;;;;;;;13.41;100.00;96146.81;4984474;28;19965;-75
2023/05/22 03:47:29;;;;;;;;;;;;;;;13.40;100.00;96142.59;5051843;28;19941;-75
2023/05/22 03:49:55;;;;;;;;;;;;;;;13.40;100.00;96145.25;4984734;28;19998;-75
2023/05/22 03:52:21;;;;;;;;;;;;;;;13.39;100.00;96144.41;5051112;28;20027;-71
2023/05/22 03:54:47;;;;;;;;;;;;;;;13.39;100.00;96141.78;4984196;28;19959;-71
2023/05/22 03:57:13;;;;;;;;;;;;;;;13.37;100.00;96133.31;4984145;28;19954;-71
2023/05/22 03:59:39;;;;;;;;;;;;;;;13.38;100.00;96128.88;4983917;28;19969;-70
2023/05/22 04:02:05;;;;;;;;;;;;;;;13.36;100.00;96126.47;4984132;28;19960;-71
2023/05/22 04:04:37;;;;;;;;;;;;;;;13.37;100.00;96128.06;4984177;28;19966;-70
2023/05/22 04:07:07;;;;;;;;;;;;;;;13.38;100.00;96124.41;4984243;28;19962;-71
2023/05/22 04:09:33;;;;;;;;;;;;;;;13.37;100.00;96133.31;4983787;28;19963;-72
2023/05/22 04:12:00;;;;;;;;;;;;;;;13.39;100.00;96130.47;4984208;28;19957;-69
2023/05/22 04:14:26;;;;;;;;;;;;;;;13.39;100.00;96122.56;4984418;28;20245;-78
2023/05/22 04:16:52;;;;;;;;;;;;;;;13.41;100.00;96125.75;5050636;28;19971;-79
2023/05/22 04:19:19;;;;;;;;;;;;;;;13.42;100.00;96130.00;4984335;28;19953;-79
2023/05/22 04:21:46;;;;;;;;;;;;;;;13.46;100.00;96128.47;4984107;28;19958;-78
2023/05/22 04:24:12;;;;;;;;;;;;;;;13.49;100.00;96127.19;4983630;28;19982;-79
2023/05/22 04:26:38;;;;;;;;;;;;;;;13.53;100.00;96131.72;4984190;28;20227;-78
2023/05/22 04:29:09;;;;;;;;;;;;;;;13.57;100.00;96134.66;4983075;28;19964;-69
2023/05/22 04:31:35;;;;;;;;;;;;;;;13.62;100.00;96134.72;4983727;28;20199;-69
2023/05/22 04:34:01;;;;;;;;;;;;;;;13.68;100.00;96133.72;5050702;28;19952;-70
2023/05/22 04:36:28;;;;;;;;;;;;;;;13.75;100.00;96130.91;4983837;28;19965;-70
2023/05/22 04:38:54;;;;;;;;;;;;;;;13.83;100.00;96125.22;4983798;28;19960;-70
2023/05/22 04:41:21;;;;;;;;;;;;;;;13.90;100.00;96125.84;4983752;28;19954;-70
2023/05/22 04:43:47;;;;;;;;;;;;;;;14.00;100.00;96123.28;4983847;28;19968;-70
2023/05/22 04:46:14;;;;;;;;;;;;;;;14.11;100.00;96120.75;4983164;28;20169;-69
2023/05/22 04:48:40;;;;;;;;;;;;;;;14.19;100.00;96129.06;4983341;28;19970;-77
2023/05/22 04:51:06;;;;;;;;;;;;;;;14.28;100.00;96124.13;5050015;28;20231;-73
2023/05/22 04:53:32;;;;;;;;;;;;;;;14.35;100.00;96132.63;4983717;28;20060;-73
2023/05/22 04:55:58;;;;;;;;;;;;;;;14.40;100.00;96129.22;5049921;28;19954;-76
2023/05/22 04:58:26;;;;;;;;;;;;;;;14.51;100.00;96132.75;4983214;28;19964;-75
2023/05/22 05:00:52;;;;;;;;;;;;;;;14.67;100.00;96128.44;4983398;28;19951;-77
2023/05/22 05:03:18;;;;;;;;;;;;;;;14.86;100.00;96137.56;4983367;28;19958;-75
2023/05/22 05:05:44;;;;;;;;;;;;;;;15.07;100.00;96135.88;5049764;28;19965;-78
2023/05/22 05:08:10;;;;;;;;;;;;;;;15.24;100.00;96133.06;4983247;28;19962;-75
2023/05/22 05:10:36;;;;;;;;;;;;;;;15.41;100.00;96127.63;4983297;28;19961;-75
2023/05/22 05:13:02;;;;;;;;;;;;;;;15.57;100.00;96136.44;5050220;28;19974;-76
2023/05/22 05:15:28;;;;;;;;;;;;;;;15.65;100.00;96138.59;4983393;28;20052;-75
2023/05/22 05:17:54;;;;;;;;;;;;;;;15.70;99.19;96130.66;4982902;28;20257;-75
2023/05/22 05:20:20;;;;;;;;;;;;;;;15.70;99.37;96135.16;4983239;28;20256;-75
2023/05/22 05:22:46;;;;;;;;;;;;;;;15.65;97.74;96124.59;4983271;28;19959;-76
2023/05/22 05:25:12;;;;;;;;;;;;;;;15.43;98.10;96136.09;4982785;28;19972;-80
2023/05/22 05:27:38;;;;;;;;;;;;;;;15.34;98.87;96138.41;4982792;28;20009;-80
2023/05/22 05:30:05;;;;;;;;;;;;;;;15.45;98.54;96139.28;4983049;28;19964;-80
2023/05/22 05:32:31;;;;;;;;;;;;;;;15.68;97.69;96134.63;4983009;28;19959;-81
2023/05/22 05:34:57;;;;;;;;;;;;;;;15.78;97.41;96132.84;4983091;28;20163;-81
2023/05/22 05:37:22;;;;;;;;;;;;;;;15.70;96.99;96129.88;5049533;28;20263;-81
2023/05/22 05:39:48;;;;;;;;;;;;;;;15.48;97.23;96138.78;4982872;28;19963;-80
2023/05/22 05:42:16;;;;;;;;;;;;;;;15.28;98.34;96146.56;4981985;28;20241;-78
2023/05/22 05:44:42;;;;;;;;;;;;;;;15.02;99.39;96151.69;4982532;28;19969;-76
2023/05/22 05:47:08;;;;;;;;;;;;;;;14.86;99.66;96148.13;4982173;28;19951;-71
2023/05/22 05:49:33;;;;;;;;;;;;;;;14.82;100.00;96165.53;4982586;28;19956;-70
2023/05/22 05:51:59;;;;;;;;;;;;;;;14.76;100.00;96155.97;5049250;28;19955;-70
2023/05/22 05:54:25;;;;;;;;;;;;;;;14.68;100.00;96169.59;5049152;28;19958;-71
2023/05/22 05:56:51;;;;;;;;;;;;;;;14.65;100.00;96167.47;5048833;28;19962;-72
2023/05/22 05:59:17;;;;;;;;;;;;;;;14.70;100.00;96162.25;4982388;28;19958;-71
2023/05/22 06:01:46;;;;;;;;;;;;;;;14.79;100.00;96174.75;4982421;28;19959;-76
2023/05/22 06:04:12;;;;;;;;;;;;;;;14.89;100.00;96171.41;5032586;28;19967;-73
2023/05/22 06:06:38;;;;;;;;;;;;;;;14.98;100.00;96174.38;5048957;28;19968;-73
2023/05/22 06:09:08;;;;;;;;;;;;;;;15.05;100.00;96172.31;5048807;28;19956;-74
2023/05/22 06:11:34;;;;;;;;;;;;;;;15.08;100.00;96171.03;4982793;28;19970;-73
2023/05/22 06:14:04;;;;;;;;;;;;;;;15.08;100.00;96168.38;4982616;28;19958;-73
2023/05/22 06:16:30;;;;;;;;;;;;;;;15.08;100.00;96165.75;5049382;28;19959;-73
2023/05/22 06:18:59;;;;;;;;;;;;;;;15.13;100.00;96171.03;5048749;28;19958;-70
2023/05/22 06:21:25;;;;;;;;;;;;;;;15.21;100.00;96176.66;4982194;28;19960;-75
2023/05/22 06:23:50;;;;;;;;;;;;;;;15.32;100.00;96174.09;5049251;28;20316;-70
2023/05/22 06:26:17;;;;;;;;;;;;;;;15.35;100.00;96182.31;4982216;28;19963;-70
2023/05/22 06:28:43;;;;;;;;;;;;;;;15.36;100.00;96173.31;4982395;28;19956;-70
2023/05/22 06:31:09;;;;;;;;;;;;;;;15.40;100.00;96181.53;5048850;28;19954;-70
2023/05/22 06:33:35;;;;;;;;;;;;;;;15.45;100.00;96181.56;4982288;28;19953;-70
2023/05/22 06:36:02;;;;;;;;;;;;;;;15.53;100.00;96182.94;4982233;28;19956;-70
2023/05/22 06:38:28;;;;;;;;;;;;;;;15.58;100.00;96173.19;4982099;28;19947;-70
2023/05/22 06:40:54;;;;;;;;;;;;;;;15.65;100.00;96172.97;4982511;28;19955;-83
2023/05/22 06:43:20;;;;;;;;;;;;;;;15.73;100.00;96177.78;4982154;28;19961;-82
2023/05/22 06:45:46;;;;;;;;;;;;;;;15.82;100.00;96180.75;4981757;28;20177;-82
2023/05/22 06:48:12;;;;;;;;;;;;;;;15.88;100.00;96174.41;4982215;28;20272;-82
2023/05/22 06:50:37;;;;;;;;;;;;;;;15.96;100.00;96173.13;5048700;28;19961;-82
2023/05/22 06:53:03;;;;;;;;;;;;;;;16.04;100.00;96175.25;4983324;28;20264;-83
2023/05/22 06:55:29;;;;;;;;;;;;;;;16.13;99.74;96168.44;4985261;28;20285;-77
2023/05/22 06:57:55;;;;;;;;;;;;;;;16.22;100.00;96174.00;4985419;28;20133;-76
2023/05/22 07:00:21;;;;;;;;;;;;;;;16.29;97.73;96168.47;5052385;28;19962;-82
2023/05/22 07:02:47;;;;;;;;;;;;;;;16.38;97.60;96166.91;4985238;28;19956;-82
2023/05/22 07:05:12;;;;;;;;;;;;;;;16.46;97.51;96171.69;4985233;28;19975;-81
2023/05/22 07:07:38;;;;;;;;;;;;;;;16.53;97.31;96174.88;4984685;28;19961;-81
2023/05/22 07:10:05;;;;;;;;;;;;;;;16.56;97.75;96181.50;4985202;28;19977;-82
2023/05/22 07:12:31;;;;;;;;;;;;;;;16.62;98.39;96185.75;4985046;28;19959;-82
2023/05/22 07:14:58;;;;;;;;;;;;;;;16.69;98.36;96183.63;4985173;28;19958;-83
2023/05/22 07:17:24;;;;;;;;;;;;;;;16.77;96.91;96179.66;4984695;28;19969;-76
2023/05/22 07:19:50;;;;;;;;;;;;;;;16.85;97.53;96187.13;4984805;28;19968;-76
2023/05/22 07:22:16;;;;;;;;;;;;;;;16.95;95.57;96181.03;4985098;28;19964;-76
2023/05/22 07:24:42;;;;;;;;;;;;;;;17.03;95.39;96181.31;5051749;28;19965;-77
2023/05/22 07:27:08;;;;;;;;;;;;;;;17.11;94.70;96185.25;5051725;28;20014;-76
2023/05/22 07:29:35;;;;;;;;;;;;;;;17.18;94.66;96182.38;5051967;28;19968;-76
2023/05/22 07:32:01;;;;;;;;;;;;;;;17.28;93.41;96178.91;5051671;28;19961;-70
2023/05/22 07:34:31;;;;;;;;;;;;;;;17.35;94.51;96188.19;5051841;28;19956;-72
2023/05/22 07:36:57;;;;;;;;;;;;;;;17.42;94.89;96190.53;5051477;28;19945;-79
2023/05/22 07:39:23;;;;;;;;;;;;;;;17.49;95.17;96188.44;4984993;28;19961;-79
2023/05/22 07:41:49;;;;;;;;;;;;;;;17.56;93.92;96180.19;5051898;28;19967;-78
2023/05/22 07:44:15;;;;;;;;;;;;;;;17.64;96.03;96192.91;5051794;28;19959;-78
2023/05/22 07:46:41;;;;;;;;;;;;;;;17.69;94.35;96173.53;5051260;28;19960;-78
2023/05/22 07:49:07;;;;;;;;;;;;;;;17.73;89.41;96163.97;5051280;28;19956;-79
2023/05/22 07:51:32;;;;;;;;;;;;;;;17.74;92.40;96182.25;5051585;28;19992;-73
2023/05/22 07:53:58;;;;;;;;;;;;;;;17.81;94.93;96195.25;4984283;28;19962;-78
2023/05/22 07:56:26;;;;;;;;;;;;;;;17.91;94.05;96189.94;4984053;28;19957;-78
2023/05/22 07:58:52;;;;;;;;;;;;;;;17.98;92.08;96179.81;5051451;28;19960;-78
2023/05/22 08:01:18;;;;;;;;;;;;;;;18.05;93.16;96193.56;4984901;28;19995;-78
2023/05/22 08:03:44;;;;;;;;;;;;;;;18.11;93.87;96198.88;5051022;28;20025;-79
2023/05/22 08:06:09;;;;;;;;;;;;;;;18.18;93.84;96202.03;4983478;28;20037;-78
2023/05/22 08:08:35;;;;;;;;;;;;;;;18.24;94.78;96207.03;4984597;28;20173;-78
2023/05/22 08:11:01;;;;;;;;;;;;;;;18.34;94.98;96203.53;4984491;28;20235;-76
2023/05/22 08:13:27;;;;;;;;;;;;;;;18.45;92.50;96186.50;5051528;28;20199;-78
2023/05/22 08:15:53;;;;;;;;;;;;;;;18.62;91.92;96180.81;4984015;28;19993;-79
2023/05/22 08:18:19;;;;;;;;;;;;;;;18.82;91.39;96171.16;4984257;28;20134;-78
2023/05/22 08:20:46;;;;;;;;;;;;;;;19.03;89.30;96164.63;4983936;28;20233;-79
2023/05/22 08:23:12;;;;;;;;;;;;;;;19.37;90.15;96169.09;4984110;28;20242;-79
2023/05/22 08:25:38;;;;;;;;;;;;;;;19.64;86.08;96144.59;4983846;28;19972;-78
2023/05/22 08:28:05;;;;;;;;;;;;;;;19.83;85.84;96143.91;4984160;28;19953;-73
2023/05/22 08:30:31;;;;;;;;;;;;;;;20.24;85.22;96138.88;5043686;28;19959;-72
2023/05/22 08:32:56;;;;;;;;;;;;;;;20.61;80.65;96101.88;5043506;28;19997;-73
2023/05/22 08:35:22;;;;;;;;;;;;;;;20.68;79.53;96103.09;5043647;28;20279;-73
2023/05/22 08:37:48;;;;;;;;;;;;;;;20.63;78.11;96086.38;5043995;28;19951;-73
2023/05/22 08:40:15;;;;;;;;;;;;;;;20.60;81.05;96102.94;5043810;28;19970;-73
2023/05/22 08:42:41;;;;;;;;;;;;;;;20.52;80.49;96103.59;5043976;28;19963;-72
2023/05/22 08:45:08;;;;;;;;;;;;;;;20.68;82.57;96112.94;5026742;28;19994;-72
2023/05/22 08:47:35;;;;;;;;;;;;;;;21.02;79.81;96104.66;5043612;28;20176;-77
2023/05/22 08:50:02;;;;;;;;;;;;;;;21.33;74.46;96060.66;5043309;28;19970;-76
2023/05/22 08:52:31;;;;;;;;;;;;;;;21.67;78.46;96094.94;5026517;28;19956;-76
2023/05/22 08:54:58;;;;;;;;;;;;;;;21.88;76.07;96076.63;5043234;28;19958;-76
2023/05/22 08:57:24;;;;;;;;;;;;;;;22.13;75.25;96077.19;5043330;28;19960;-77
2023/05/22 08:59:51;;;;;;;;;;;;;;;22.28;73.66;96067.00;5043089;28;20254;-76
2023/05/22 09:02:18;;;;;;;;;;;;;;;22.28;74.08;96058.97;5042358;28;20021;-76
2023/05/22 09:04:44;;;;;;;;;;;;;;;22.34;73.63;96064.19;4983164;28;19938;-72
2023/05/22 09:07:10;;;;;;;;;;;;;;;22.39;72.92;96056.06;5050275;28;19971;-72
2023/05/22 09:09:36;;;;;;;;;;;;;;;22.45;72.88;96070.91;5050266;28;19958;-79
2023/05/22 09:12:03;;;;;;;;;;;;;;;22.62;72.12;96054.97;4983220;28;19965;-78
2023/05/22 09:14:36;;;;;;;;;;;;;;;22.77;71.07;96053.03;5049983;28;19959;-79
2023/05/22 09:17:03;;;;;;;;;;;;;;;22.90;71.88;96057.50;4982996;28;19962;-79
2023/05/22 09:19:29;;;;;;;;;;;;;;;23.00;73.35;96070.59;5049968;28;20242;-79
2023/05/22 09:22:03;;;;;;;;;;;;;;;23.16;72.96;96065.69;4983012;28;19961;-79
2023/05/22 09:24:29;;;;;;;;;;;;;;;23.47;73.48;96070.19;4983149;28;20227;-76
2023/05/22 09:26:55;;;;;;;;;;;;;;;23.71;71.99;96056.44;5049446;28;19975;-77
2023/05/22 09:29:21;;;;;;;;;;;;;;;23.85;66.54;96016.91;4983133;28;19960;-76
2023/05/22 09:31:47;;;;;;;;;;;;;;;23.84;69.05;96058.22;5049796;28;19952;-76
2023/05/22 09:34:13;;;;;;;;;;;;;;;23.94;70.18;96072.38;4982783;28;20025;-76
2023/05/22 09:36:38;;;;;;;;;;;;;;;23.94;69.52;96093.81;4982645;28;20218;-76
2023/05/22 09:39:05;;;;;;;;;;;;;;;23.96;69.37;96102.31;5049717;28;19969;-76
2023/05/22 09:41:36;;;;;;;;;;;;;;;24.03;69.51;96100.78;5049428;28;19963;-84
2023/05/22 09:44:12;;;;;;;;;;;;;;;24.01;69.99;96111.00;4982664;28;19960;-72
2023/05/22 09:46:43;;;;;;;;;;;;;;;24.09;69.28;96104.88;4982526;28;20289;-71
2023/05/22 09:49:09;;;;;;;;;;;;;;;23.97;68.06;96109.28;4983246;28;19962;-72
2023/05/22 09:51:38;;;;;;;;;;;;;;;23.97;70.32;96117.31;4982905;28;20134;-71
2023/05/22 09:54:06;;;;;;;;;;;;;;;23.88;69.18;96110.03;4982981;28;19958;-72
2023/05/22 09:56:37;;;;;;;;;;;;;;;23.86;67.98;96104.22;5048134;28;20440;-71
2023/05/22 09:59:08;;;;;;;;;;;;;;;23.68;68.33;96105.22;5049017;28;20071;-71
2023/05/22 10:01:35;;;;;;;;;;;;;;;23.60;69.41;96112.16;4982731;28;19965;-72
2023/05/22 10:04:01;;;;;;;;;;;;;;;23.41;67.40;96106.22;5049541;28;19967;-78
2023/05/22 10:06:30;;;;;;;;;;;;;;;23.27;70.77;96127.75;4982038;28;19970;-79
2023/05/22 10:08:59;;;;;;;;;;;;;;;23.23;71.26;96118.75;5049291;28;19965;-79
2023/05/22 10:11:28;;;;;;;;;;;;;;;23.38;70.51;96125.59;4982654;28;19959;-77
2023/05/22 10:13:54;;;;;;;;;;;;;;;23.59;71.67;96129.28;5049135;28;19960;-78
2023/05/22 10:16:20;;;;;;;;;;;;;;;23.68;71.16;96118.59;5049756;28;19965;-78
2023/05/22 10:18:47;;;;;;;;;;;;;;;23.66;70.44;96115.44;5049334;28;19973;-76
2023/05/22 10:21:15;;;;;;;;;;;;;;;23.76;71.21;96115.19;5049652;28;19948;-83
2023/05/22 10:23:41;;;;;;;;;;;;;;;24.02;69.33;96107.25;4982055;28;19961;-84
2023/05/22 10:26:08;;;;;;;;;;;;;;;24.37;69.62;96104.59;5049219;28;20280;-85
2023/05/22 10:28:39;;;;;;;;;;;;;;;24.60;66.89;96099.09;4984439;28;20240;-85
2023/05/22 10:31:08;;;;;;;;;;;;;;;24.83;67.38;96097.81;4985503;28;19963;-86
2023/05/22 10:33:40;;;;;;;;;;;;;;;25.10;68.72;96099.31;4985537;28;19960;-84
2023/05/22 10:36:07;;;;;;;;;;;;;;;25.34;66.11;96081.13;5052889;28;20226;-79
2023/05/22 10:38:33;;;;;;;;;;;;;;;25.50;65.00;96085.63;4985625;28;20144;-73
2023/05/22 10:41:01;;;;;;;;;;;;;;;25.65;63.76;96070.88;5052548;28;19964;-79
2023/05/22 10:43:28;;;;;;;;;;;;;;;25.84;64.41;96080.41;4985565;28;19958;-80
2023/05/22 10:46:01;;;;;;;;;;;;;;;26.01;61.90;96064.19;4985437;28;20124;-78
2023/05/22 10:48:26;;;;;;;;;;;;;;;26.21;61.74;96057.28;4985543;28;20142;-79
2023/05/22 10:50:52;;;;;;;;;;;;;;;26.34;61.19;96060.81;4985512;28;19954;-78
2023/05/22 10:53:21;;;;;;;;;;;;;;;26.43;58.99;96050.75;5052825;28;19965;-78
2023/05/22 10:55:48;;;;;;;;;;;;;;;26.51;61.56;96063.34;4985167;28;19962;-87
2023/05/22 10:58:15;;;;;;;;;;;;;;;26.61;58.93;96054.13;5052780;28;19971;-79
2023/05/22 11:00:41;;;;;;;;;;;;;;;26.69;62.20;96065.88;4985471;28;19967;-79
2023/05/22 11:03:07;;;;;;;;;;;;;;;26.76;59.66;96058.09;4985117;28;19962;-80
2023/05/22 11:05:33;;;;;;;;;;;;;;;26.84;59.68;96056.44;5052298;28;19963;-79
2023/05/22 11:08:18;;;;;;;;;;;;;;;26.84;58.94;96049.13;4984743;28;20292;-80
2023/05/22 11:10:59;;;;;;;;;;;;;;;26.85;61.41;96060.69;4985181;28;20133;-79
2023/05/22 11:13:26;;;;;;;;;;;;;;;26.89;57.97;96048.13;4985095;28;19960;-72
2023/05/22 11:15:53;;;;;;;;;;;;;;;26.94;57.50;96045.22;4984979;28;19960;-72
2023/05/22 11:18:19;;;;;;;;;;;;;;;27.03;57.82;96051.31;4984670;28;19965;-72
2023/05/22 11:20:45;;;;;;;;;;;;;;;27.11;55.24;96041.56;4984948;28;19955;-72
2023/05/22 11:23:11;;;;;;;;;;;;;;;27.26;55.31;96046.31;4985134;28;19962;-73
2023/05/22 11:25:39;;;;;;;;;;;;;;;27.30;58.02;96063.38;4984787;28;20151;-73
2023/05/22 11:28:06;;;;;;;;;;;;;;;27.33;54.50;96053.84;4984814;28;19961;-73
2023/05/22 11:30:33;;;;;;;;;;;;;;;27.43;59.54;96064.16;5051632;28;19967;-72
2023/05/22 11:32:59;;;;;;;;;;;;;;;27.52;54.51;96045.97;5034972;28;20251;-86
2023/05/22 11:35:27;;;;;;;;;;;;;;;27.63;51.18;96038.22;5035204;28;19969;-79
2023/05/22 11:37:54;;;;;;;;;;;;;;;27.79;53.95;96043.72;4984782;28;19943;-80
2023/05/22 11:40:23;;;;;;;;;;;;;;;27.92;54.00;96047.19;4984509;28;19960;-80
2023/05/22 11:42:48;;;;;;;;;;;;;;;27.97;51.18;96035.41;5051491;28;19958;-80
2023/05/22 11:45:14;;;;;;;;;;;;;;;28.05;54.94;96048.75;4984533;28;19966;-79
2023/05/22 11:47:42;;;;;;;;;;;;;;;28.06;53.44;96042.25;4984307;28;20067;-80
2023/05/22 11:50:08;;;;;;;;;;;;;;;27.94;52.96;96040.34;4984076;28;20255;-74
2023/05/22 11:52:35;;;;;;;;;;;;;;;27.93;53.98;96044.19;5034806;28;19961;-74
2023/05/22 11:55:04;;;;;;;;;;;;;;;27.87;54.44;96047.44;4984380;28;19963;-79
2023/05/22 11:57:30;;;;;;;;;;;;;;;27.90;54.50;96054.84;4984409;28;20238;-79
2023/05/22 12:00:00;;;;;;;;;;;;;;;27.94;50.17;96031.47;4984963;28;19960;-79
2023/05/22 12:02:26;;;;;;;;;;;;;;;27.98;51.91;96047.75;4984347;28;19964;-78
2023/05/22 12:04:56;;;;;;;;;;;;;;;28.05;54.22;96043.34;5051567;28;19977;-79
2023/05/22 12:07:22;;;;;;;;;;;;;;;28.09;47.43;96030.75;5050915;28;20161;-77
2023/05/22 12:09:48;;;;;;;;;;;;;;;28.11;50.22;96039.28;4984437;28;19955;-73
2023/05/22 12:12:17;;;;;;;;;;;;;;;28.12;50.69;96046.28;4984482;28;19997;-80
2023/05/22 12:14:43;;;;;;;;;;;;;;;28.25;50.53;96047.00;4984033;28;19964;-80
2023/05/22 12:17:13;;;;;;;;;;;;;;;28.35;47.82;96032.28;4984140;28;19984;-80
2023/05/22 12:19:39;;;;;;;;;;;;;;;28.53;51.20;96043.56;5034452;28;19968;-80
2023/05/22 12:22:06;;;;;;;;;;;;;;;28.68;49.37;96042.81;5051038;28;19962;-80
2023/05/22 12:24:39;;;;;;;;;;;;;;;28.74;47.81;96032.56;5050878;28;19964;-80
2023/05/22 12:27:09;;;;;;;;;;;;;;;28.78;47.13;96043.44;4983966;28;19971;-78
2023/05/22 12:29:35;;;;;;;;;;;;;;;28.78;43.89;96043.44;4983999;28;19946;-77
2023/05/22 12:32:02;;;;;;;;;;;;;;;28.82;47.37;96055.91;5051206;28;19968;-79
2023/05/22 12:34:31;;;;;;;;;;;;;;;28.84;49.64;96040.16;4983502;28;20247;-79
2023/05/22 12:36:57;;;;;;;;;;;;;;;28.83;50.29;96048.59;4983615;28;19959;-79
2023/05/22 12:39:23;;;;;;;;;;;;;;;28.84;48.83;96045.53;4983950;28;20108;-78
2023/05/22 12:41:49;;;;;;;;;;;;;;;28.89;49.07;96044.50;4983591;28;20147;-78